Terminal Aerodrome Forecast
Issued by NWS

Home | Current Version | Previous Version | Graphics & Text | Print | Product List | Glossary On
Versions: 1 2 3 4 5 6 7 8 9 10 11 12 13 14 15 16 17 18 19 20 21 22 23 24
106
FTUS43 KGRB 170520
TAFRHI
TAF
KRHI 170520Z 1706/1806 25006KT P6SM SCT110
     FM170800 25007KT P6SM BKN100 WS016/28035KT
     FM171100 25009KT P6SM SCT200 WS018/27045KT
     FM171400 24012G20KT P6SM SKC WS019/28050KT=

USA.gov is the U.S. government's official web portal to all federal, state and local government web resources and services.